Time;durP1;ratioP1;P1;durP2;ratioP2;P2;SDS_P1;SDS_P2;PMS_P1;PMS_P2;Temp;Humidity;BMP_temperature;BMP_pressure;BME280_temperature;BME280_humidity;BME280_pressure;Samples;Min_cycle;Max_cycle;Signal;HPM_P1;HPM_P2
2022/06/05 00:01:26;;;;;;;17.80;6.07;;;;;;;;;;5073810;28;20439;-69
2022/06/05 00:03:57;;;;;;;19.33;5.40;;;;;;;;;;5073691;28;21013;-69
2022/06/05 00:06:28;;;;;;;19.40;5.83;;;;;;;;;;5073506;28;20435;-69
2022/06/05 00:09:01;;;;;;;15.87;4.20;;;;;;;;;;5074046;28;20509;-69
2022/06/05 00:11:29;;;;;;;18.80;5.63;;;;;;;;;;5074064;28;20478;-69
2022/06/05 00:13:57;;;;;;;17.40;6.23;;;;;;;;;;5073562;28;20830;-69
2022/06/05 00:16:27;;;;;;;24.67;6.23;;;;;;;;;;5073706;28;20440;-69
2022/06/05 00:18:54;;;;;;;18.33;5.00;;;;;;;;;;5074486;28;20427;-69
2022/06/05 00:21:23;;;;;;;16.23;5.10;;;;;;;;;;5073840;28;20443;-69
2022/06/05 00:23:51;;;;;;;17.20;4.97;;;;;;;;;;5073294;28;20475;-70
2022/06/05 00:26:25;;;;;;;17.57;5.50;;;;;;;;;;5073460;28;20443;-70
2022/06/05 00:28:58;;;;;;;19.87;5.47;;;;;;;;;;5073469;28;20478;-69
2022/06/05 00:31:32;;;;;;;15.97;4.53;;;;;;;;;;5073549;28;20928;-69
2022/06/05 00:34:00;;;;;;;16.00;4.87;;;;;;;;;;5073545;28;20438;-69
2022/06/05 00:36:36;;;;;;;15.60;4.70;;;;;;;;;;5073662;28;20442;-69
2022/06/05 00:39:06;;;;;;;18.60;4.80;;;;;;;;;;5073251;28;20454;-69
2022/06/05 00:41:43;;;;;;;16.80;4.43;;;;;;;;;;5072912;28;20447;-69
2022/06/05 00:44:13;;;;;;;16.00;5.23;;;;;;;;;;5073780;28;20447;-69
2022/06/05 00:46:43;;;;;;;24.27;6.03;;;;;;;;;;5073490;28;20443;-69
2022/06/05 00:49:10;;;;;;;22.33;5.23;;;;;;;;;;5072982;28;20946;-69
2022/06/05 00:51:38;;;;;;;17.30;5.90;;;;;;;;;;5072801;28;20931;-69
2022/06/05 00:54:06;;;;;;;16.90;4.97;;;;;;;;;;5073152;28;20435;-69
2022/06/05 00:56:34;;;;;;;20.50;6.33;;;;;;;;;;5073230;28;20454;-70
2022/06/05 00:59:02;;;;;;;16.80;5.13;;;;;;;;;;5072998;28;20442;-69
2022/06/05 01:01:30;;;;;;;21.07;5.80;;;;;;;;;;5072579;28;20447;-69
2022/06/05 01:04:01;;;;;;;18.27;5.80;;;;;;;;;;5072711;28;20450;-69
2022/06/05 01:06:29;;;;;;;15.60;4.70;;;;;;;;;;5072798;28;20431;-69
2022/06/05 01:08:56;;;;;;;20.20;5.77;;;;;;;;;;5072900;28;20482;-69
2022/06/05 01:11:27;;;;;;;18.03;5.20;;;;;;;;;;5072792;28;20465;-69
2022/06/05 01:14:00;;;;;;;17.17;5.43;;;;;;;;;;5072602;28;20466;-69
2022/06/05 01:16:30;;;;;;;17.80;5.33;;;;;;;;;;5073046;28;20790;-69
2022/06/05 01:19:05;;;;;;;17.80;5.20;;;;;;;;;;5072031;28;20447;-69
2022/06/05 01:21:52;;;;;;;16.97;5.70;;;;;;;;;;5072331;28;20442;-69
2022/06/05 01:24:29;;;;;;;18.10;5.70;;;;;;;;;;5072535;28;20451;-69
2022/06/05 01:27:00;;;;;;;20.40;5.07;;;;;;;;;;5072383;28;20448;-70
2022/06/05 01:29:31;;;;;;;31.47;7.40;;;;;;;;;;5072316;28;20558;-69
2022/06/05 01:32:01;;;;;;;16.80;5.03;;;;;;;;;;5072475;28;20431;-69
2022/06/05 01:34:32;;;;;;;20.80;6.07;;;;;;;;;;5072182;28;20435;-69
2022/06/05 01:37:02;;;;;;;20.10;6.40;;;;;;;;;;5072370;28;20435;-69
2022/06/05 01:39:31;;;;;;;18.63;5.67;;;;;;;;;;5072465;28;20447;-69
2022/06/05 01:42:02;;;;;;;17.93;5.90;;;;;;;;;;5072097;28;20442;-69
2022/06/05 01:44:30;;;;;;;21.30;5.83;;;;;;;;;;5072281;28;20439;-70
2022/06/05 01:46:59;;;;;;;19.33;5.27;;;;;;;;;;5072268;28;20431;-69
2022/06/05 01:49:29;;;;;;;19.80;5.90;;;;;;;;;;5071971;28;20482;-69
2022/06/05 01:52:01;;;;;;;17.90;5.40;;;;;;;;;;5071956;28;20442;-69
2022/06/05 01:54:30;;;;;;;16.10;5.53;;;;;;;;;;5072719;28;20444;-69
2022/06/05 01:56:59;;;;;;;17.27;5.50;;;;;;;;;;5072010;28;20949;-69
2022/06/05 01:59:32;;;;;;;19.30;5.00;;;;;;;;;;5072015;28;20446;-69
2022/06/05 02:02:01;;;;;;;15.97;5.50;;;;;;;;;;5071871;28;20446;-69
2022/06/05 02:04:33;;;;;;;19.40;5.67;;;;;;;;;;5071790;28;20444;-69
2022/06/05 02:07:05;;;;;;;19.10;5.00;;;;;;;;;;5071878;28;20967;-69
2022/06/05 02:09:35;;;;;;;23.33;6.37;;;;;;;;;;5071844;28;20474;-69
2022/06/05 02:12:03;;;;;;;21.40;5.67;;;;;;;;;;5071641;28;20953;-69
2022/06/05 02:14:32;;;;;;;16.53;4.67;;;;;;;;;;5071679;28;20439;-69
2022/06/05 02:17:00;;;;;;;18.37;5.27;;;;;;;;;;5071752;28;20443;-70
2022/06/05 02:19:28;;;;;;;17.53;5.57;;;;;;;;;;5071403;28;21021;-69
2022/06/05 02:22:00;;;;;;;16.93;5.70;;;;;;;;;;5071883;28;20998;-69
2022/06/05 02:24:28;;;;;;;20.63;6.17;;;;;;;;;;5072031;28;20443;-69
2022/06/05 02:26:58;;;;;;;18.37;5.87;;;;;;;;;;5071583;28;20446;-69
2022/06/05 02:29:26;;;;;;;17.53;5.67;;;;;;;;;;5073593;28;20486;-69
2022/06/05 02:32:00;;;;;;;21.27;5.63;;;;;;;;;;5075578;28;20451;-69
2022/06/05 02:34:33;;;;;;;17.27;5.70;;;;;;;;;;5076296;28;20864;-69
2022/06/05 02:37:04;;;;;;;26.00;6.10;;;;;;;;;;5075843;28;20444;-69
2022/06/05 02:39:37;;;;;;;15.80;5.50;;;;;;;;;;5075258;28;20476;-69
2022/06/05 02:42:07;;;;;;;17.40;6.07;;;;;;;;;;5075277;28;20946;-69
2022/06/05 02:44:38;;;;;;;16.03;5.43;;;;;;;;;;5075632;28;20443;-69
2022/06/05 02:47:21;;;;;;;17.87;5.13;;;;;;;;;;5075588;28;20457;-69
2022/06/05 02:49:51;;;;;;;25.93;7.30;;;;;;;;;;5075335;28;20443;-69
2022/06/05 02:52:19;;;;;;;16.70;5.80;;;;;;;;;;5075296;28;20435;-69
2022/06/05 02:54:50;;;;;;;18.03;5.80;;;;;;;;;;5075246;28;20959;-69
2022/06/05 02:57:17;;;;;;;20.70;6.27;;;;;;;;;;5075300;28;20963;-69
2022/06/05 02:59:45;;;;;;;18.67;6.60;;;;;;;;;;5075163;28;20452;-69
2022/06/05 03:04:58;;;;;;;16.90;5.93;;;;;;;;;;5075050;28;20589;-69
2022/06/05 03:07:26;;;;;;;20.10;6.73;;;;;;;;;;5075235;28;20442;-69
2022/06/05 03:09:54;;;;;;;17.10;5.63;;;;;;;;;;5074802;28;20443;-69
2022/06/05 03:12:21;;;;;;;18.87;5.83;;;;;;;;;;5074873;28;20455;-70
2022/06/05 03:14:49;;;;;;;18.67;6.30;;;;;;;;;;5075194;28;20802;-70
2022/06/05 03:17:16;;;;;;;19.17;5.57;;;;;;;;;;5074697;28;20512;-69
2022/06/05 03:19:44;;;;;;;16.73;5.37;;;;;;;;;;5074799;28;20442;-69
2022/06/05 03:22:12;;;;;;;18.10;6.20;;;;;;;;;;5074520;28;20956;-69
2022/06/05 03:24:40;;;;;;;17.80;6.10;;;;;;;;;;5074959;28;20442;-69
2022/06/05 03:27:08;;;;;;;19.43;6.17;;;;;;;;;;5074639;28;20443;-69
2022/06/05 03:29:35;;;;;;;18.57;6.87;;;;;;;;;;5074223;28;21014;-69
2022/06/05 03:32:03;;;;;;;16.60;6.00;;;;;;;;;;5074604;28;20442;-69
2022/06/05 03:34:30;;;;;;;18.40;6.40;;;;;;;;;;5074561;28;20530;-69
2022/06/05 03:36:58;;;;;;;15.77;5.50;;;;;;;;;;5074481;28;20451;-69
2022/06/05 03:39:26;;;;;;;17.20;5.53;;;;;;;;;;5074419;28;20448;-69
2022/06/05 03:41:54;;;;;;;17.37;5.90;;;;;;;;;;5072825;28;20451;-69
2022/06/05 03:44:21;;;;;;;21.17;6.20;;;;;;;;;;5073704;28;20452;-69
2022/06/05 03:46:49;;;;;;;22.80;6.10;;;;;;;;;;5074219;28;20439;-69
2022/06/05 03:49:16;;;;;;;19.80;6.80;;;;;;;;;;5073786;28;20475;-70
2022/06/05 03:51:46;;;;;;;18.93;5.97;;;;;;;;;;5073765;28;20933;-70
2022/06/05 03:54:15;;;;;;;16.97;5.80;;;;;;;;;;5074208;28;20461;-71
2022/06/05 03:56:44;;;;;;;15.60;5.93;;;;;;;;;;5073905;28;20819;-70
2022/06/05 03:59:11;;;;;;;15.97;6.00;;;;;;;;;;5074207;28;20439;-70
2022/06/05 04:01:39;;;;;;;18.80;6.20;;;;;;;;;;5073762;28;20440;-70
2022/06/05 04:04:07;;;;;;;18.83;6.30;;;;;;;;;;5073999;28;20441;-70
2022/06/05 04:06:34;;;;;;;16.80;5.60;;;;;;;;;;5074062;28;20809;-69
2022/06/05 04:09:05;;;;;;;22.13;6.47;;;;;;;;;;5073328;28;20961;-71
2022/06/05 04:11:33;;;;;;;21.20;6.77;;;;;;;;;;5062686;28;20224;-73
2022/06/05 04:14:01;;;;;;;16.93;5.80;;;;;;;;;;5070943;28;20504;-73
2022/06/05 04:16:30;;;;;;;18.60;6.17;;;;;;;;;;5073230;28;20476;-71
2022/06/05 04:18:59;;;;;;;20.47;6.47;;;;;;;;;;5073168;28;20486;-73
2022/06/05 04:21:27;;;;;;;17.90;6.43;;;;;;;;;;5073000;28;20531;-74
2022/06/05 04:23:55;;;;;;;19.70;6.40;;;;;;;;;;5071554;28;20478;-74
2022/06/05 04:26:23;;;;;;;16.60;5.87;;;;;;;;;;5068851;28;20866;-73
2022/06/05 04:28:52;;;;;;;17.33;6.03;;;;;;;;;;5072425;28;20497;-73
2022/06/05 04:31:22;;;;;;;17.27;5.97;;;;;;;;;;5072475;28;20463;-74
2022/06/05 04:33:51;;;;;;;17.97;5.90;;;;;;;;;;5070549;28;20473;-74
2022/06/05 04:36:19;;;;;;;17.10;5.60;;;;;;;;;;5070847;28;20464;-74
2022/06/05 04:38:47;;;;;;;22.83;6.57;;;;;;;;;;5071036;28;20996;-74
2022/06/05 04:41:15;;;;;;;17.97;5.30;;;;;;;;;;5070312;28;20469;-74
2022/06/05 04:43:43;;;;;;;16.30;5.20;;;;;;;;;;5070158;28;20483;-74
2022/06/05 04:46:10;;;;;;;15.13;4.97;;;;;;;;;;5070833;28;20464;-74
2022/06/05 04:48:39;;;;;;;16.30;5.07;;;;;;;;;;5072603;28;20841;-73
2022/06/05 04:51:06;;;;;;;15.77;5.50;;;;;;;;;;5073005;28;20475;-73
2022/06/05 04:53:34;;;;;;;16.17;5.37;;;;;;;;;;5071200;28;20475;-73
2022/06/05 04:56:04;;;;;;;14.87;4.60;;;;;;;;;;5071969;28;20475;-73
2022/06/05 04:58:31;;;;;;;17.00;5.03;;;;;;;;;;5072422;28;20478;-73
2022/06/05 05:00:59;;;;;;;15.50;5.33;;;;;;;;;;5072208;28;20466;-73
2022/06/05 05:03:26;;;;;;;15.40;5.07;;;;;;;;;;5072195;28;20995;-75
2022/06/05 05:05:56;;;;;;;18.43;5.57;;;;;;;;;;5072194;28;20471;-74
2022/06/05 05:08:23;;;;;;;18.10;6.63;;;;;;;;;;5072099;28;20505;-73
2022/06/05 05:10:51;;;;;;;15.20;5.13;;;;;;;;;;5071626;28;20461;-74
2022/06/05 05:13:19;;;;;;;16.33;4.90;;;;;;;;;;5071679;28;20473;-74
2022/06/05 05:15:49;;;;;;;14.60;5.00;;;;;;;;;;5071396;28;20469;-75
2022/06/05 05:18:17;;;;;;;18.40;5.23;;;;;;;;;;5071535;28;20983;-74
2022/06/05 05:20:44;;;;;;;16.93;5.60;;;;;;;;;;5071685;28;20474;-75
2022/06/05 05:23:13;;;;;;;16.67;5.20;;;;;;;;;;5071452;28;20479;-74
2022/06/05 05:25:41;;;;;;;17.70;6.10;;;;;;;;;;5071121;28;20463;-72
2022/06/05 05:28:09;;;;;;;18.67;6.90;;;;;;;;;;5071240;28;20471;-75
2022/06/05 05:30:44;;;;;;;19.10;7.00;;;;;;;;;;5071751;28;20490;-74
2022/06/05 05:33:11;;;;;;;16.63;6.30;;;;;;;;;;5071321;28;20482;-73
2022/06/05 05:35:38;;;;;;;19.87;8.20;;;;;;;;;;5070759;28;20478;-72
2022/06/05 05:38:06;;;;;;;18.17;6.50;;;;;;;;;;5071135;28;20569;-72
2022/06/05 05:43:20;;;;;;;19.00;6.37;;;;;;;;;;5068919;28;20474;-72
2022/06/05 05:45:49;;;;;;;16.53;6.30;;;;;;;;;;5070613;28;20463;-74
2022/06/05 05:48:16;;;;;;;24.73;6.63;;;;;;;;;;5068772;28;20514;-74
2022/06/05 05:50:45;;;;;;;15.67;5.83;;;;;;;;;;5071061;28;20464;-72
2022/06/05 05:53:12;;;;;;;17.80;6.10;;;;;;;;;;5071242;28;20463;-74
2022/06/05 05:55:42;;;;;;;16.37;6.40;;;;;;;;;;5069862;28;20462;-73
2022/06/05 05:58:09;;;;;;;18.90;6.53;;;;;;;;;;5070948;28;20478;-74
2022/06/05 06:00:38;;;;;;;20.67;6.97;;;;;;;;;;5068638;28;20829;-77
2022/06/05 06:03:06;;;;;;;17.07;6.27;;;;;;;;;;5070935;28;20855;-73
2022/06/05 06:05:34;;;;;;;15.97;5.60;;;;;;;;;;5070454;28;21069;-73
2022/06/05 06:08:01;;;;;;;17.67;7.30;;;;;;;;;;5070465;28;20463;-74
2022/06/05 06:10:29;;;;;;;18.57;5.97;;;;;;;;;;5069911;28;20502;-73
2022/06/05 06:12:57;;;;;;;20.70;6.63;;;;;;;;;;5070851;28;20554;-75
2022/06/05 06:15:25;;;;;;;18.50;6.40;;;;;;;;;;5070789;28;20510;-74
2022/06/05 06:17:53;;;;;;;17.17;6.30;;;;;;;;;;5070708;28;20477;-73
2022/06/05 06:20:20;;;;;;;16.67;6.00;;;;;;;;;;5071037;28;20478;-71
2022/06/05 06:22:47;;;;;;;19.10;6.70;;;;;;;;;;5070715;28;20505;-73
2022/06/05 06:25:16;;;;;;;16.97;6.47;;;;;;;;;;5064115;28;20510;-71
2022/06/05 06:27:44;;;;;;;16.40;5.90;;;;;;;;;;5070881;28;20439;-72
2022/06/05 06:30:13;;;;;;;17.50;6.60;;;;;;;;;;5071664;28;20482;-72
2022/06/05 06:32:40;;;;;;;16.97;6.00;;;;;;;;;;5071563;28;20442;-73
2022/06/05 06:35:11;;;;;;;15.70;6.10;;;;;;;;;;5071246;28;20436;-72
2022/06/05 06:37:39;;;;;;;20.33;6.90;;;;;;;;;;5070669;28;20990;-72
2022/06/05 06:40:07;;;;;;;17.73;6.30;;;;;;;;;;5071355;28;20607;-71
2022/06/05 06:42:34;;;;;;;15.50;6.10;;;;;;;;;;5071289;28;20435;-71
2022/06/05 06:45:02;;;;;;;17.63;6.00;;;;;;;;;;5071646;28;20438;-72
2022/06/05 06:47:30;;;;;;;16.20;6.47;;;;;;;;;;5070230;28;20978;-72
2022/06/05 06:49:58;;;;;;;17.10;6.83;;;;;;;;;;5069170;28;20482;-72
2022/06/05 06:52:27;;;;;;;17.00;6.57;;;;;;;;;;5069563;28;20451;-72
2022/06/05 06:54:55;;;;;;;19.07;6.17;;;;;;;;;;5069770;28;20822;-72
2022/06/05 06:57:22;;;;;;;19.50;6.27;;;;;;;;;;5070193;28;20439;-71
2022/06/05 06:59:50;;;;;;;17.97;6.50;;;;;;;;;;5070118;28;20442;-71
2022/06/05 07:02:17;;;;;;;17.63;6.33;;;;;;;;;;5070231;28;20442;-71
2022/06/05 07:04:46;;;;;;;16.33;6.70;;;;;;;;;;5071621;28;20435;-71
2022/06/05 07:07:13;;;;;;;18.90;6.70;;;;;;;;;;5071692;28;20442;-71
2022/06/05 07:09:42;;;;;;;20.80;6.70;;;;;;;;;;5071164;28;20482;-71
2022/06/05 07:12:09;;;;;;;16.20;6.40;;;;;;;;;;5071119;28;20450;-72
2022/06/05 07:14:37;;;;;;;16.03;6.83;;;;;;;;;;5071297;28;20435;-71
2022/06/05 07:17:05;;;;;;;18.57;7.20;;;;;;;;;;5074431;28;20434;-71
2022/06/05 07:19:32;;;;;;;16.50;6.87;;;;;;;;;;5074971;28;20427;-71
2022/06/05 07:22:01;;;;;;;17.70;6.87;;;;;;;;;;5074664;28;20446;-71
2022/06/05 07:24:28;;;;;;;15.53;6.10;;;;;;;;;;5074769;28;20442;-71
2022/06/05 07:26:56;;;;;;;21.70;8.20;;;;;;;;;;5074805;28;20446;-71
2022/06/05 07:29:24;;;;;;;16.07;6.60;;;;;;;;;;5074559;28;20493;-71
2022/06/05 07:31:51;;;;;;;15.50;6.70;;;;;;;;;;5074507;28;20438;-72
2022/06/05 07:34:18;;;;;;;15.80;7.07;;;;;;;;;;5074898;28;20433;-71
2022/06/05 07:36:46;;;;;;;19.70;6.60;;;;;;;;;;5074535;28;20450;-71
2022/06/05 07:39:15;;;;;;;17.27;6.50;;;;;;;;;;5074823;28;20435;-71
2022/06/05 07:41:42;;;;;;;16.47;6.90;;;;;;;;;;5074280;28;20445;-71
2022/06/05 07:44:10;;;;;;;20.60;7.43;;;;;;;;;;5074513;28;20431;-71
2022/06/05 07:46:37;;;;;;;15.57;6.00;;;;;;;;;;5074373;28;20445;-72
2022/06/05 07:49:05;;;;;;;17.63;6.60;;;;;;;;;;5074610;28;20447;-71
2022/06/05 07:54:30;;;;;;;16.63;6.23;;;;;;;;;;5074364;28;20430;-72
2022/06/05 07:56:58;;;;;;;17.47;6.33;;;;;;;;;;5074671;28;20454;-72
2022/06/05 07:59:27;;;;;;;15.47;5.70;;;;;;;;;;5074174;28;20435;-71
2022/06/05 08:01:54;;;;;;;18.73;6.00;;;;;;;;;;5074325;28;20862;-72
2022/06/05 08:04:21;;;;;;;19.80;6.70;;;;;;;;;;5074130;28;20443;-71
2022/06/05 08:06:49;;;;;;;17.03;6.57;;;;;;;;;;5073941;28;20443;-71
2022/06/05 08:09:16;;;;;;;16.00;6.47;;;;;;;;;;5074149;28;20442;-71
2022/06/05 08:11:45;;;;;;;19.40;7.37;;;;;;;;;;5074027;28;20427;-72
2022/06/05 08:14:14;;;;;;;16.53;5.87;;;;;;;;;;5073975;28;20463;-72
2022/06/05 08:16:43;;;;;;;18.87;6.37;;;;;;;;;;5074097;28;20866;-71
2022/06/05 08:19:11;;;;;;;19.63;7.50;;;;;;;;;;5073815;28;20435;-72
2022/06/05 08:21:39;;;;;;;18.67;6.53;;;;;;;;;;5073432;28;20442;-71
2022/06/05 08:24:06;;;;;;;21.63;7.50;;;;;;;;;;5074236;28;20479;-72
2022/06/05 08:26:34;;;;;;;16.77;6.70;;;;;;;;;;5073935;28;20446;-72
2022/06/05 08:29:04;;;;;;;17.57;6.80;;;;;;;;;;5073566;28;20450;-71
2022/06/05 08:31:31;;;;;;;17.10;6.40;;;;;;;;;;5073253;28;20485;-72
2022/06/05 08:34:01;;;;;;;17.53;6.37;;;;;;;;;;5073464;28;20818;-71
2022/06/05 08:36:28;;;;;;;17.63;6.37;;;;;;;;;;5073730;28;20435;-71
2022/06/05 08:42:02;;;;;;;22.07;6.50;;;;;;;;;;5011724;28;20817;-73
2022/06/05 08:44:37;;;;;;;18.00;6.77;;;;;;;;;;5011810;28;20437;-72
2022/06/05 08:47:07;;;;;;;16.37;6.70;;;;;;;;;;5044400;28;20958;-72
2022/06/05 08:49:40;;;;;;;19.90;6.67;;;;;;;;;;5073098;28;20447;-72
2022/06/05 08:52:17;;;;;;;17.60;6.70;;;;;;;;;;5073242;28;20451;-72
2022/06/05 08:54:49;;;;;;;18.50;7.40;;;;;;;;;;5073052;28;20438;-73
2022/06/05 08:57:19;;;;;;;16.00;6.20;;;;;;;;;;5073066;28;20440;-72
2022/06/05 08:59:50;;;;;;;24.03;6.97;;;;;;;;;;5072653;28;20819;-73
2022/06/05 09:02:19;;;;;;;17.80;7.20;;;;;;;;;;5073409;28;20899;-73
2022/06/05 09:04:50;;;;;;;18.63;6.90;;;;;;;;;;5072895;28;20454;-72
2022/06/05 09:07:20;;;;;;;16.87;6.67;;;;;;;;;;5072762;28;20435;-72
2022/06/05 09:09:49;;;;;;;19.10;7.60;;;;;;;;;;5072458;28;21006;-73
2022/06/05 09:12:22;;;;;;;17.20;6.53;;;;;;;;;;5072735;28;20446;-73
2022/06/05 09:14:55;;;;;;;19.30;7.67;;;;;;;;;;5073037;28;20811;-73
2022/06/05 09:17:23;;;;;;;17.20;7.00;;;;;;;;;;5072624;28;20510;-73
2022/06/05 09:19:52;;;;;;;19.53;8.03;;;;;;;;;;5072569;28;20779;-73
2022/06/05 09:22:20;;;;;;;21.50;7.00;;;;;;;;;;5072448;28;20482;-73
2022/06/05 09:25:03;;;;;;;23.23;6.83;;;;;;;;;;5072651;28;20972;-73
2022/06/05 09:27:39;;;;;;;19.27;8.07;;;;;;;;;;5072536;28;20439;-73
2022/06/05 09:30:11;;;;;;;22.37;7.77;;;;;;;;;;5072519;28;20489;-74
2022/06/05 09:32:45;;;;;;;18.00;8.77;;;;;;;;;;5072557;28;20445;-74
2022/06/05 09:35:20;;;;;;;22.50;7.77;;;;;;;;;;5072678;28;20439;-75
2022/06/05 09:37:51;;;;;;;23.67;8.67;;;;;;;;;;5071080;28;20495;-74
2022/06/05 09:40:20;;;;;;;18.00;7.57;;;;;;;;;;5072202;28;20439;-74
2022/06/05 09:42:52;;;;;;;20.40;7.80;;;;;;;;;;5072163;28;20443;-73
2022/06/05 09:45:27;;;;;;;20.27;8.33;;;;;;;;;;5072494;28;20508;-73
2022/06/05 09:47:59;;;;;;;19.40;7.40;;;;;;;;;;5072618;28;20470;-73
2022/06/05 09:50:28;;;;;;;17.90;8.20;;;;;;;;;;5072167;28;20837;-74
2022/06/05 09:52:55;;;;;;;21.50;8.50;;;;;;;;;;5071901;28;20446;-74
2022/06/05 09:55:27;;;;;;;19.80;9.00;;;;;;;;;;5071873;28;20500;-74
2022/06/05 10:00:49;;;;;;;19.03;8.00;;;;;;;;;;5072238;28;20431;-74
2022/06/05 10:03:17;;;;;;;18.67;7.43;;;;;;;;;;5071935;28;20442;-73
2022/06/05 10:05:47;;;;;;;18.30;7.47;;;;;;;;;;5066358;28;20462;-75
2022/06/05 10:08:18;;;;;;;20.63;7.77;;;;;;;;;;5065620;28;20474;-74
2022/06/05 10:10:45;;;;;;;17.30;7.93;;;;;;;;;;5071436;28;20497;-74
2022/06/05 10:13:17;;;;;;;17.87;8.13;;;;;;;;;;5071003;28;20458;-73
2022/06/05 10:15:48;;;;;;;23.37;9.50;;;;;;;;;;5070811;28;20872;-74
2022/06/05 10:18:19;;;;;;;22.03;9.03;;;;;;;;;;5071446;28;20466;-74
2022/06/05 10:21:01;;;;;;;18.43;7.80;;;;;;;;;;5070498;28;20479;-74
2022/06/05 10:23:44;;;;;;;23.07;8.43;;;;;;;;;;5071246;28;20483;-76
2022/06/05 10:26:17;;;;;;;23.93;8.60;;;;;;;;;;5071383;28;20470;-73
2022/06/05 10:28:45;;;;;;;21.30;7.73;;;;;;;;;;5071605;28;20841;-74
2022/06/05 10:31:14;;;;;;;19.93;9.30;;;;;;;;;;5071159;28;20494;-75
2022/06/05 10:33:49;;;;;;;26.60;8.90;;;;;;;;;;5070936;28;20462;-74
2022/06/05 10:36:19;;;;;;;19.07;8.40;;;;;;;;;;5070757;28;20470;-76
2022/06/05 10:38:59;;;;;;;18.17;7.97;;;;;;;;;;5071014;28;20467;-76
2022/06/05 10:41:28;;;;;;;23.40;9.30;;;;;;;;;;5070108;28;20486;-77
2022/06/05 10:44:10;;;;;;;18.73;8.90;;;;;;;;;;5070935;28;20443;-77
2022/06/05 10:46:41;;;;;;;19.00;7.90;;;;;;;;;;5068955;28;20447;-80
2022/06/05 10:49:12;;;;;;;20.10;8.83;;;;;;;;;;5070814;28;20454;-78
2022/06/05 10:51:44;;;;;;;17.93;8.30;;;;;;;;;;5074546;28;20831;-77
2022/06/05 10:54:23;;;;;;;19.70;8.83;;;;;;;;;;5074316;28;20446;-78
2022/06/05 10:56:53;;;;;;;19.00;9.00;;;;;;;;;;5074707;28;20504;-78
2022/06/05 10:59:23;;;;;;;18.47;7.77;;;;;;;;;;5074643;28;20504;-78
2022/06/05 11:01:58;;;;;;;19.37;7.60;;;;;;;;;;5074136;28;20454;-76
2022/06/05 11:04:34;;;;;;;28.53;8.83;;;;;;;;;;5074588;28;20445;-75
2022/06/05 11:07:10;;;;;;;23.07;7.70;;;;;;;;;;5073127;28;20443;-76
2022/06/05 11:09:41;;;;;;;20.30;7.23;;;;;;;;;;5074797;28;20445;-76
2022/06/05 11:15:07;;;;;;;19.93;7.03;;;;;;;;;;5073430;28;20914;-77
2022/06/05 11:17:39;;;;;;;17.97;7.90;;;;;;;;;;5071968;28;20434;-76
2022/06/05 11:20:11;;;;;;;20.87;8.27;;;;;;;;;;5074627;28;20964;-76
2022/06/05 11:22:42;;;;;;;17.90;7.50;;;;;;;;;;5074798;28;20481;-76
2022/06/05 11:25:15;;;;;;;19.47;7.40;;;;;;;;;;5075063;28;20438;-76
2022/06/05 11:27:49;;;;;;;18.47;8.03;;;;;;;;;;5074432;28;20443;-76
2022/06/05 11:30:19;;;;;;;17.73;6.90;;;;;;;;;;5074598;28;20446;-76
2022/06/05 11:32:49;;;;;;;17.57;6.80;;;;;;;;;;5074798;28;20513;-76
2022/06/05 11:35:28;;;;;;;19.80;6.73;;;;;;;;;;5074501;28;20447;-76
2022/06/05 11:37:59;;;;;;;16.57;6.60;;;;;;;;;;5074375;28;20474;-76
2022/06/05 11:40:34;;;;;;;16.17;5.70;;;;;;;;;;5074455;28;20435;-76
2022/06/05 11:43:08;;;;;;;20.67;6.90;;;;;;;;;;5074465;28;20442;-76
2022/06/05 11:45:41;;;;;;;15.40;6.40;;;;;;;;;;5073968;28;20513;-76
2022/06/05 11:48:12;;;;;;;17.57;5.90;;;;;;;;;;5074624;28;20458;-76
2022/06/05 11:50:42;;;;;;;18.20;6.80;;;;;;;;;;5074314;28;20858;-76
2022/06/05 11:53:15;;;;;;;18.33;6.23;;;;;;;;;;5074395;28;20450;-76
2022/06/05 11:55:46;;;;;;;19.33;7.37;;;;;;;;;;5074205;28;20451;-76
2022/06/05 11:58:17;;;;;;;17.23;6.70;;;;;;;;;;5074089;28;20431;-76
2022/06/05 12:00:46;;;;;;;17.40;6.37;;;;;;;;;;5074153;28;20493;-76
2022/06/05 12:03:16;;;;;;;18.97;7.30;;;;;;;;;;5073737;28;20440;-76
2022/06/05 12:05:49;;;;;;;17.83;7.23;;;;;;;;;;5073826;28;20819;-77
2022/06/05 12:08:20;;;;;;;17.23;6.33;;;;;;;;;;5074027;28;20454;-78
2022/06/05 12:10:55;;;;;;;22.13;6.67;;;;;;;;;;5073909;28;20573;-78
2022/06/05 12:13:33;;;;;;;17.50;7.20;;;;;;;;;;5074058;28;20500;-78
2022/06/05 12:16:03;;;;;;;22.60;7.37;;;;;;;;;;5074324;28;20454;-78
2022/06/05 12:18:33;;;;;;;19.73;7.40;;;;;;;;;;5074224;28;20453;-78
2022/06/05 12:21:07;;;;;;;18.20;7.63;;;;;;;;;;5073848;28;20463;-78
2022/06/05 12:23:37;;;;;;;19.97;7.63;;;;;;;;;;5073618;28;20851;-77
2022/06/05 12:26:07;;;;;;;18.20;7.50;;;;;;;;;;5073658;28;20453;-78
2022/06/05 12:28:38;;;;;;;20.07;9.00;;;;;;;;;;5073811;28;20439;-77
2022/06/05 12:31:11;;;;;;;19.83;7.73;;;;;;;;;;5073549;28;20482;-78
2022/06/05 12:33:43;;;;;;;17.90;7.80;;;;;;;;;;5073637;28;20420;-78
2022/06/05 12:36:15;;;;;;;21.63;8.33;;;;;;;;;;5073470;28;20901;-78
2022/06/05 12:38:47;;;;;;;18.70;7.47;;;;;;;;;;5073512;28;20439;-78
2022/06/05 12:41:17;;;;;;;21.73;9.77;;;;;;;;;;5073471;28;20502;-78
2022/06/05 12:43:49;;;;;;;19.77;7.90;;;;;;;;;;5073049;28;20439;-78
2022/06/05 12:46:22;;;;;;;20.07;8.33;;;;;;;;;;5073617;28;20436;-79
2022/06/05 12:48:50;;;;;;;18.40;8.33;;;;;;;;;;5073818;28;20439;-78
2022/06/05 12:51:21;;;;;;;19.90;8.60;;;;;;;;;;5073364;28;20906;-79
2022/06/05 12:53:56;;;;;;;19.50;7.53;;;;;;;;;;5072885;28;20447;-78
2022/06/05 12:56:28;;;;;;;18.53;7.43;;;;;;;;;;5073045;28;20457;-77
2022/06/05 12:58:57;;;;;;;20.40;7.23;;;;;;;;;;5073548;28;20443;-77
2022/06/05 13:01:27;;;;;;;15.60;6.90;;;;;;;;;;5072883;28;20450;-78
2022/06/05 13:03:57;;;;;;;16.43;6.57;;;;;;;;;;5072835;28;20446;-78
2022/06/05 13:06:30;;;;;;;19.13;6.17;;;;;;;;;;5073082;28;20438;-78
2022/06/05 13:09:00;;;;;;;16.67;6.20;;;;;;;;;;5072862;28;20435;-78
2022/06/05 13:11:29;;;;;;;17.53;6.03;;;;;;;;;;5072672;28;21018;-78
2022/06/05 13:14:02;;;;;;;18.90;6.70;;;;;;;;;;5071914;28;20459;-77
2022/06/05 13:16:38;;;;;;;25.13;7.23;;;;;;;;;;5073050;28;20469;-78
2022/06/05 13:28:45;;;;;;;18.73;6.80;;;;;;;;;;5070313;28;20489;-78
2022/06/05 13:31:26;;;;;;;17.17;7.03;;;;;;;;;;5070773;28;20494;-77
2022/06/05 13:33:55;;;;;;;16.27;6.47;;;;;;;;;;5067630;28;20561;-78
2022/06/05 13:36:25;;;;;;;18.50;6.20;;;;;;;;;;5070846;28;20485;-77
2022/06/05 13:38:57;;;;;;;16.13;6.30;;;;;;;;;;5071420;28;20557;-78
2022/06/05 13:41:27;;;;;;;25.77;6.57;;;;;;;;;;5071524;28;20505;-77
2022/06/05 13:43:59;;;;;;;21.43;6.10;;;;;;;;;;5069807;28;20852;-76
2022/06/05 13:46:29;;;;;;;16.30;5.40;;;;;;;;;;5070309;28;20565;-74
2022/06/05 13:49:00;;;;;;;16.50;5.70;;;;;;;;;;5070444;28;20499;-73
2022/06/05 13:51:28;;;;;;;17.00;5.80;;;;;;;;;;5071567;28;21030;-76
2022/06/05 13:53:59;;;;;;;17.93;5.70;;;;;;;;;;5071427;28;20494;-76
2022/06/05 13:56:30;;;;;;;16.83;6.03;;;;;;;;;;5070950;28;20482;-75
2022/06/05 13:59:02;;;;;;;17.33;6.87;;;;;;;;;;5068508;28;20991;-76
2022/06/05 14:01:31;;;;;;;15.77;5.00;;;;;;;;;;5071496;28;20485;-79
2022/06/05 14:04:00;;;;;;;16.47;6.23;;;;;;;;;;5070912;28;20466;-75
2022/06/05 14:06:38;;;;;;;17.40;6.03;;;;;;;;;;5070868;28;20562;-76
2022/06/05 14:09:08;;;;;;;16.13;5.20;;;;;;;;;;5071507;28;20524;-76
2022/06/05 14:11:37;;;;;;;17.33;7.13;;;;;;;;;;5071155;28;20525;-76
2022/06/05 14:14:07;;;;;;;15.87;5.57;;;;;;;;;;5070505;28;20465;-77
2022/06/05 14:16:36;;;;;;;14.87;5.00;;;;;;;;;;5070761;28;20544;-75
2022/06/05 14:19:05;;;;;;;15.87;5.10;;;;;;;;;;5070374;28;20458;-76
2022/06/05 14:21:34;;;;;;;18.30;5.60;;;;;;;;;;5068477;28;20463;-75
2022/06/05 14:24:06;;;;;;;22.03;6.00;;;;;;;;;;5070928;28;20850;-75
2022/06/05 14:26:38;;;;;;;19.40;6.00;;;;;;;;;;5071401;28;20942;-75
2022/06/05 14:29:09;;;;;;;15.60;4.97;;;;;;;;;;5071054;28;20849;-77
2022/06/05 14:31:37;;;;;;;15.00;4.20;;;;;;;;;;5070810;28;20582;-78
2022/06/05 14:34:05;;;;;;;21.67;5.67;;;;;;;;;;5070376;28;20463;-75
2022/06/05 14:36:41;;;;;;;15.67;4.33;;;;;;;;;;5070791;28;20488;-74
2022/06/05 14:39:13;;;;;;;14.63;4.87;;;;;;;;;;5071129;28;20462;-75
2022/06/05 14:41:45;;;;;;;15.77;4.60;;;;;;;;;;5070897;28;20467;-75
2022/06/05 14:44:20;;;;;;;15.00;3.83;;;;;;;;;;5070453;28;20470;-74
2022/06/05 14:46:50;;;;;;;14.90;4.20;;;;;;;;;;5050972;28;20486;-75
2022/06/05 14:49:22;;;;;;;15.73;4.70;;;;;;;;;;5058183;28;20844;-76
2022/06/05 14:51:54;;;;;;;16.73;4.00;;;;;;;;;;5067436;28;20520;-75
2022/06/05 14:57:51;;;;;;;15.70;4.43;;;;;;;;;;5071015;28;20454;-75
2022/06/05 15:00:05;;;;;;;15.77;3.90;;;;;;;;;;5070286;28;20476;-75
2022/06/05 15:02:37;;;;;;;14.40;4.10;;;;;;;;;;5071169;28;20473;-75
2022/06/05 15:05:06;;;;;;;19.17;4.30;;;;;;;;;;5070267;28;20471;-75
2022/06/05 15:07:36;;;;;;;15.63;4.80;;;;;;;;;;5070018;28;20467;-76
2022/06/05 15:10:19;;;;;;;19.23;4.90;;;;;;;;;;5070257;28;20478;-75
2022/06/05 15:12:50;;;;;;;17.00;5.20;;;;;;;;;;5070530;28;20559;-76
2022/06/05 15:15:21;;;;;;;15.40;5.00;;;;;;;;;;5069585;28;20481;-76
2022/06/05 15:17:49;;;;;;;22.43;6.10;;;;;;;;;;5069126;28;20470;-78